createdAt,value
2022-09-27T00:00:24.581Z,11.73
2022-09-27T00:02:55.089Z,11.70
2022-09-27T00:05:27.915Z,13.00
2022-09-27T00:07:59.121Z,12.48
2022-09-27T00:10:29.361Z,13.13
2022-09-27T00:13:01.924Z,12.77
2022-09-27T00:15:33.587Z,12.00
2022-09-27T00:18:04.024Z,12.93
2022-09-27T00:20:37.828Z,13.60
2022-09-27T00:25:37.904Z,11.88
2022-09-27T00:28:08.048Z,11.93
2022-09-27T00:30:38.440Z,11.65
2022-09-27T00:33:10.821Z,11.90
2022-09-27T00:35:43.670Z,12.80
2022-09-27T00:38:14.131Z,10.43
2022-09-27T00:40:44.323Z,12.13
2022-09-27T00:43:20.541Z,12.13
2022-09-27T00:45:55.135Z,12.23
2022-09-27T00:48:29.616Z,12.00
2022-09-27T00:51:06.817Z,11.27
2022-09-27T00:53:43.130Z,11.05
2022-09-27T00:56:18.787Z,11.48
2022-09-27T00:58:58.620Z,11.25
2022-09-27T01:01:30.702Z,11.10
2022-09-27T01:04:06.765Z,11.23
2022-09-27T01:06:39.968Z,10.85
2022-09-27T01:09:12.364Z,12.00
2022-09-27T01:11:48.136Z,12.02
2022-09-27T01:14:42.268Z,11.60
2022-09-27T01:17:27.877Z,11.68
2022-09-27T01:20:23.336Z,10.77
2022-09-27T01:23:15.036Z,11.80
2022-09-27T01:26:02.321Z,11.35
2022-09-27T01:28:44.912Z,10.93
2022-09-27T01:31:25.268Z,11.68
2022-09-27T01:34:05.167Z,11.23
2022-09-27T01:36:46.288Z,11.75
2022-09-27T01:39:29.840Z,12.10
2022-09-27T01:42:05.960Z,11.43
2022-09-27T01:44:42.514Z,11.27
2022-09-27T01:47:19.991Z,10.73
2022-09-27T01:49:57.640Z,11.27
2022-09-27T01:52:35.134Z,10.80
2022-09-27T01:55:09.519Z,10.52
2022-09-27T01:57:44.095Z,10.02
2022-09-27T02:00:15.958Z,10.80
2022-09-27T02:02:53.139Z,10.38
2022-09-27T02:05:26.285Z,10.25
2022-09-27T02:08:01.050Z,11.43
2022-09-27T02:10:35.889Z,11.20
2022-09-27T02:13:24.526Z,10.45
2022-09-27T02:16:05.108Z,11.23
2022-09-27T02:18:49.392Z,10.30
2022-09-27T02:23:58.064Z,9.45
2022-09-27T02:26:35.892Z,10.68
2022-09-27T02:29:11.449Z,11.35
2022-09-27T02:31:41.793Z,11.20
2022-09-27T02:34:19.307Z,9.60
2022-09-27T02:36:50.848Z,10.07
2022-09-27T02:39:22.184Z,10.55
2022-09-27T02:41:58.497Z,10.57
2022-09-27T02:44:30.589Z,11.20
2022-09-27T02:47:24.266Z,11.55
2022-09-27T02:50:10.946Z,11.30
2022-09-27T02:52:53.034Z,10.93
2022-09-27T02:55:32.431Z,9.98
2022-09-27T02:58:14.819Z,10.70
2022-09-27T03:00:52.420Z,9.85
2022-09-27T03:03:29.437Z,11.05
2022-09-27T03:06:07.298Z,10.75
2022-09-27T03:08:40.355Z,10.98
2022-09-27T03:11:11.115Z,12.63
2022-09-27T03:14:06.789Z,10.85
2022-09-27T03:16:34.862Z,9.65
2022-09-27T03:19:12.206Z,11.20
2022-09-27T03:21:45.997Z,11.45
2022-09-27T03:24:18.928Z,11.75
2022-09-27T03:26:49.015Z,10.65
2022-09-27T03:29:19.160Z,11.10
2022-09-27T03:31:49.387Z,10.98
2022-09-27T03:34:19.529Z,9.80
2022-09-27T03:36:56.372Z,10.95
2022-09-27T03:39:26.830Z,9.48
2022-09-27T03:41:57.028Z,11.00
2022-09-27T03:44:29.177Z,9.18
2022-09-27T03:46:59.639Z,9.73
2022-09-27T03:49:30.117Z,11.30
2022-09-27T03:52:02.874Z,10.25
2022-09-27T03:54:33.319Z,14.43
2022-09-27T03:57:03.775Z,10.77
2022-09-27T03:59:34.112Z,12.45
2022-09-27T04:02:07.187Z,10.87
2022-09-27T04:04:37.368Z,9.05
2022-09-27T04:07:10.443Z,9.52
2022-09-27T04:09:44.733Z,9.97
2022-09-27T04:12:15.275Z,8.45
2022-09-27T04:14:45.335Z,9.18
2022-09-27T04:17:15.521Z,10.30
2022-09-27T04:19:46.171Z,9.82
2022-09-27T04:22:18.912Z,10.40
2022-09-27T04:24:49.041Z,12.13
2022-09-27T04:27:19.355Z,10.07
2022-09-27T04:29:49.972Z,10.70
2022-09-27T04:32:20.132Z,8.38
2022-09-27T04:35:03.660Z,7.97
2022-09-27T04:37:37.069Z,8.07
2022-09-27T04:40:08.225Z,7.68
2022-09-27T04:42:38.431Z,7.28
2022-09-27T04:45:13.510Z,7.82
2022-09-27T04:47:46.596Z,7.93
2022-09-27T04:50:17.712Z,8.40
2022-09-27T04:52:53.970Z,8.05
2022-09-27T04:55:25.418Z,8.68
2022-09-27T04:57:57.981Z,8.20
2022-09-27T05:00:28.745Z,8.75
2022-09-27T05:03:02.019Z,9.20
2022-09-27T05:05:34.983Z,8.00
2022-09-27T05:08:08.174Z,8.65
2022-09-27T05:10:38.281Z,9.27
2022-09-27T05:13:09.247Z,10.50
2022-09-27T05:15:39.748Z,8.30
2022-09-27T05:18:10.997Z,8.50
2022-09-27T05:20:41.902Z,7.30
2022-09-27T05:23:15.483Z,7.82
2022-09-27T05:25:45.682Z,7.57
2022-09-27T05:28:15.901Z,6.55
2022-09-27T05:30:46.713Z,6.50
2022-09-27T05:33:16.937Z,7.32
2022-09-27T05:35:47.450Z,6.10
2022-09-27T05:38:20.292Z,6.15
2022-09-27T05:40:51.776Z,5.95
2022-09-27T05:43:22.347Z,5.57
2022-09-27T05:45:53.293Z,5.55
2022-09-27T05:48:24.080Z,6.43
2022-09-27T05:50:56.883Z,5.88
2022-09-27T05:53:29.777Z,6.95
2022-09-27T05:56:04.933Z,6.88
2022-09-27T05:58:37.645Z,6.57
2022-09-27T06:01:09.937Z,6.43
2022-09-27T06:03:47.369Z,6.38
2022-09-27T06:06:19.690Z,5.80
2022-09-27T06:08:52.629Z,5.43
2022-09-27T06:11:25.565Z,6.30
2022-09-27T06:13:55.947Z,6.25
2022-09-27T06:16:26.288Z,7.25
2022-09-27T06:18:56.677Z,6.60
2022-09-27T06:21:29.012Z,6.40
2022-09-27T06:24:02.174Z,6.78
2022-09-27T06:26:33.729Z,7.50
2022-09-27T06:29:07.988Z,6.75
2022-09-27T06:31:38.113Z,6.88
2022-09-27T06:34:08.469Z,7.13
2022-09-27T06:36:38.672Z,5.93
2022-09-27T06:39:11.443Z,6.70
2022-09-27T06:41:44.456Z,7.35
2022-09-27T06:44:18.471Z,7.03
2022-09-27T06:49:20.552Z,6.53
2022-09-27T06:51:50.838Z,6.10
2022-09-27T06:54:23.626Z,6.70
2022-09-27T06:56:53.847Z,6.65
2022-09-27T06:59:36.436Z,6.28
2022-09-27T07:02:06.692Z,6.10
2022-09-27T07:04:38.925Z,5.90
2022-09-27T07:07:12.114Z,5.30
2022-09-27T07:09:45.805Z,5.30
2022-09-27T07:12:16.090Z,4.80
2022-09-27T07:14:46.225Z,5.20
2022-09-27T07:17:16.371Z,5.25
2022-09-27T07:19:46.542Z,4.80
2022-09-27T07:22:16.995Z,4.25
2022-09-27T07:24:49.695Z,4.20
2022-09-27T07:27:19.862Z,4.22
2022-09-27T07:29:50.046Z,4.53
2022-09-27T07:32:20.183Z,4.53
2022-09-27T07:34:50.373Z,4.55
2022-09-27T07:37:20.746Z,4.68
2022-09-27T07:39:53.537Z,5.40
2022-09-27T07:42:23.727Z,4.45
2022-09-27T07:44:53.911Z,5.35
2022-09-27T07:47:24.756Z,5.30
2022-09-27T07:49:56.298Z,6.18
2022-09-27T07:52:29.381Z,7.68
2022-09-27T07:55:02.181Z,9.27
2022-09-27T07:57:32.459Z,8.20
2022-09-27T08:00:02.885Z,8.65
2022-09-27T08:02:34.737Z,7.63
2022-09-27T08:05:05.987Z,8.75
2022-09-27T08:07:36.207Z,8.73
2022-09-27T08:10:10.699Z,10.35
2022-09-27T08:12:40.998Z,10.88
2022-09-27T08:15:13.076Z,10.48
2022-09-27T08:17:43.196Z,10.98
2022-09-27T08:20:14.820Z,11.23
2022-09-27T08:22:46.354Z,11.10
2022-09-27T08:25:19.311Z,11.70
2022-09-27T08:27:58.777Z,12.40
2022-09-27T08:30:31.520Z,10.90
2022-09-27T08:33:05.116Z,11.68
2022-09-27T08:35:36.928Z,11.67
2022-09-27T08:38:08.776Z,12.32
2022-09-27T08:40:52.011Z,11.98
2022-09-27T08:43:31.088Z,11.35
2022-09-27T08:46:14.187Z,13.02
2022-09-27T08:48:47.032Z,12.23
2022-09-27T08:51:18.385Z,11.57
2022-09-27T08:53:54.310Z,11.05
2022-09-27T08:56:27.252Z,11.23
2022-09-27T08:59:04.658Z,10.23
2022-09-27T09:01:36.005Z,11.80
2022-09-27T09:04:07.125Z,12.00
2022-09-27T09:06:46.055Z,10.45
2022-09-27T09:09:27.788Z,10.38
2022-09-27T09:12:27.350Z,11.38
2022-09-27T09:15:07.690Z,10.90
2022-09-27T09:17:55.864Z,12.60
2022-09-27T09:20:37.700Z,12.57
2022-09-27T09:23:40.411Z,12.60
2022-09-27T09:26:20.302Z,11.65
2022-09-27T09:29:07.052Z,9.77
2022-09-27T09:31:44.642Z,11.88
2022-09-27T09:34:21.837Z,12.05
2022-09-27T09:37:00.078Z,13.52
2022-09-27T09:39:37.306Z,12.13
2022-09-27T09:42:13.260Z,13.32
2022-09-27T09:44:54.455Z,12.63
2022-09-27T09:47:35.842Z,11.52
2022-09-27T09:50:17.023Z,12.50
2022-09-27T09:52:51.882Z,12.40
2022-09-27T09:55:26.714Z,14.32
2022-09-27T09:58:05.949Z,13.88
2022-09-27T10:00:40.576Z,13.52
2022-09-27T10:03:10.709Z,11.70
2022-09-27T10:05:40.978Z,10.98
2022-09-27T10:08:19.976Z,12.43
2022-09-27T10:10:50.566Z,11.60
2022-09-27T10:13:23.960Z,11.40
2022-09-27T10:16:03.880Z,11.43
2022-09-27T10:18:35.799Z,11.60
2022-09-27T10:21:11.133Z,11.02
2022-09-27T10:24:12.281Z,12.93
2022-09-27T10:26:47.842Z,13.07
2022-09-27T10:29:20.811Z,10.45
2022-09-27T10:31:52.311Z,9.77
2022-09-27T10:34:30.363Z,11.20
2022-09-27T10:37:19.411Z,10.10
2022-09-27T10:39:53.851Z,11.60
2022-09-27T10:42:36.554Z,11.43
2022-09-27T10:45:32.201Z,11.75
2022-09-27T10:48:04.395Z,10.65
2022-09-27T10:50:50.941Z,10.80
2022-09-27T10:53:24.740Z,11.00
2022-09-27T10:55:57.950Z,11.82
2022-09-27T10:58:32.090Z,11.35
2022-09-27T11:01:05.421Z,13.05
2022-09-27T11:03:40.661Z,11.32
2022-09-27T11:06:23.478Z,12.02
2022-09-27T11:08:55.846Z,10.77
2022-09-27T11:11:31.267Z,10.82
2022-09-27T11:14:04.609Z,10.82
2022-09-27T11:16:49.995Z,11.70
2022-09-27T11:19:36.732Z,11.52
2022-09-27T11:22:19.429Z,9.95
2022-09-27T11:25:13.680Z,10.05
2022-09-27T11:28:02.050Z,10.70
2022-09-27T11:30:42.827Z,10.38
2022-09-27T11:33:32.849Z,10.10
2022-09-27T11:36:07.943Z,9.57
2022-09-27T11:38:53.969Z,8.93
2022-09-27T11:41:58.430Z,8.95
2022-09-27T11:44:47.317Z,8.48
2022-09-27T11:47:26.203Z,8.80
2022-09-27T11:50:26.483Z,8.88
2022-09-27T11:53:12.710Z,8.30
2022-09-27T11:55:51.741Z,8.02
2022-09-27T11:58:30.764Z,8.20
2022-09-27T12:01:15.644Z,7.55
2022-09-27T12:04:03.923Z,8.05
2022-09-27T12:06:44.586Z,9.75
2022-09-27T12:09:19.904Z,7.93
2022-09-27T12:11:53.198Z,9.20
2022-09-27T12:14:27.776Z,7.53
2022-09-27T12:17:01.121Z,7.65
2022-09-27T12:19:39.976Z,8.60
2022-09-27T12:22:15.989Z,8.40
2022-09-27T12:24:47.339Z,9.00
2022-09-27T12:27:24.606Z,7.57
2022-09-27T12:29:57.869Z,8.65
2022-09-27T12:32:38.782Z,8.75
2022-09-27T12:35:18.711Z,8.25
2022-09-27T12:37:54.333Z,8.68
2022-09-27T12:40:28.528Z,8.60
2022-09-27T12:43:05.421Z,8.30
2022-09-27T12:45:47.589Z,9.10
2022-09-27T12:48:32.156Z,8.63
2022-09-27T12:51:10.276Z,8.68
2022-09-27T12:54:03.486Z,9.60
2022-09-27T12:56:50.005Z,9.32
2022-09-27T12:59:49.286Z,8.65
2022-09-27T13:02:48.220Z,8.40
2022-09-27T13:05:48.299Z,8.88
2022-09-27T13:08:34.488Z,10.23
2022-09-27T13:11:14.329Z,10.40
2022-09-27T13:13:45.023Z,11.27
2022-09-27T13:16:15.465Z,10.27
2022-09-27T13:19:01.657Z,10.23
2022-09-27T13:22:05.147Z,11.55
2022-09-27T13:24:43.881Z,11.13
2022-09-27T13:27:46.214Z,11.27
2022-09-27T13:30:53.310Z,10.43
2022-09-27T13:33:50.575Z,9.82
2022-09-27T13:36:38.255Z,10.25
2022-09-27T13:39:26.114Z,10.93
2022-09-27T13:42:09.911Z,9.93
2022-09-27T13:44:56.018Z,9.65
2022-09-27T13:47:39.206Z,8.65
2022-09-27T13:50:26.268Z,9.88
2022-09-27T13:53:07.117Z,9.55
2022-09-27T13:55:57.784Z,9.23
2022-09-27T13:58:37.779Z,9.13
2022-09-27T14:01:14.850Z,9.10
2022-09-27T14:03:47.994Z,9.25
2022-09-27T14:06:23.289Z,8.38
2022-09-27T14:08:56.662Z,7.65
2022-09-27T14:11:34.030Z,9.27
2022-09-27T14:14:07.084Z,6.43
2022-09-27T14:16:39.510Z,8.10
2022-09-27T14:19:17.903Z,8.00
2022-09-27T14:21:49.341Z,7.50
2022-09-27T14:24:34.758Z,7.10
2022-09-27T14:27:19.205Z,7.63
2022-09-27T14:29:53.396Z,7.53
2022-09-27T14:32:26.365Z,6.68
2022-09-27T14:35:28.304Z,6.63
2022-09-27T14:37:56.031Z,6.72
2022-09-27T14:40:26.538Z,6.22
2022-09-27T14:43:04.219Z,6.47
2022-09-27T14:45:42.119Z,6.38
2022-09-27T14:48:23.913Z,5.60
2022-09-27T14:51:04.983Z,5.95
2022-09-27T14:53:39.369Z,6.43
2022-09-27T14:56:11.875Z,6.22
2022-09-27T14:58:47.924Z,6.85
2022-09-27T15:01:20.503Z,7.00
2022-09-27T15:03:53.766Z,6.35
2022-09-27T15:06:25.103Z,6.57
2022-09-27T15:08:58.019Z,6.57
2022-09-27T15:11:30.111Z,6.73
2022-09-27T15:14:08.507Z,6.43
2022-09-27T15:16:39.014Z,6.13
2022-09-27T15:19:17.987Z,6.13
2022-09-27T15:21:50.372Z,6.55
2022-09-27T15:24:39.829Z,6.85
2022-09-27T15:27:18.669Z,6.72
2022-09-27T15:29:55.739Z,6.85
2022-09-27T15:32:27.813Z,7.07
2022-09-27T15:35:00.101Z,6.15
2022-09-27T15:37:36.819Z,7.35
2022-09-27T15:40:45.550Z,6.55
2022-09-27T15:43:25.185Z,7.65
2022-09-27T15:46:00.933Z,7.82
2022-09-27T15:48:32.751Z,7.25
2022-09-27T15:51:03.241Z,7.05
2022-09-27T15:53:54.266Z,9.80
2022-09-27T15:56:24.505Z,7.50
2022-09-27T15:58:54.717Z,7.45
2022-09-27T16:01:27.487Z,7.45
2022-09-27T16:03:57.732Z,8.02
2022-09-27T16:06:30.440Z,8.10
2022-09-27T16:09:00.631Z,7.70
2022-09-27T16:11:30.809Z,7.90
2022-09-27T16:14:00.943Z,8.07
2022-09-27T16:16:35.320Z,8.57
2022-09-27T16:19:05.768Z,7.65
2022-09-27T16:21:35.900Z,9.60
2022-09-27T16:24:06.635Z,8.27
2022-09-27T16:26:36.774Z,8.20
2022-09-27T16:29:07.426Z,8.50
2022-09-27T16:31:44.432Z,8.50
2022-09-27T16:34:15.097Z,9.20
2022-09-27T16:36:48.557Z,9.18
2022-09-27T16:39:19.022Z,8.98
2022-09-27T16:41:49.248Z,9.48
2022-09-27T16:44:20.073Z,9.40
2022-09-27T16:46:53.474Z,9.40
2022-09-27T16:49:36.136Z,9.90
2022-09-27T16:52:06.526Z,10.75
2022-09-27T16:54:36.880Z,11.00
2022-09-27T16:57:07.520Z,10.52
2022-09-27T16:59:37.751Z,11.02
2022-09-27T17:02:11.800Z,11.15
2022-09-27T17:04:42.073Z,11.07
2022-09-27T17:07:12.403Z,11.10
2022-09-27T17:09:42.961Z,10.68
2022-09-27T17:12:13.170Z,11.55
2022-09-27T17:14:43.441Z,11.48
2022-09-27T17:17:16.231Z,12.15
2022-09-27T17:19:49.088Z,12.00
2022-09-27T17:22:19.401Z,12.38
2022-09-27T17:24:49.564Z,13.05
2022-09-27T17:27:23.987Z,13.23
2022-09-27T17:29:56.042Z,12.18
2022-09-27T17:32:29.205Z,12.77
2022-09-27T17:34:59.459Z,12.07
2022-09-27T17:37:29.630Z,11.82
2022-09-27T17:40:00.385Z,12.63
2022-09-27T17:42:31.790Z,13.50
2022-09-27T17:45:05.147Z,13.18
2022-09-27T17:47:50.359Z,13.65
2022-09-27T17:50:30.026Z,13.88
2022-09-27T17:53:01.247Z,13.60
2022-09-27T17:55:32.683Z,15.00
2022-09-27T17:58:04.050Z,14.82
2022-09-27T18:00:36.628Z,15.82
2022-09-27T18:03:11.811Z,15.65
2022-09-27T18:05:42.537Z,14.18
2022-09-27T18:08:12.863Z,15.23
2022-09-27T18:10:43.701Z,13.82
2022-09-27T18:13:14.006Z,15.02
2022-09-27T18:15:44.733Z,15.80
2022-09-27T18:18:17.530Z,15.95
2022-09-27T18:20:47.718Z,14.57
2022-09-27T18:23:17.859Z,16.42
2022-09-27T18:25:56.076Z,15.10
2022-09-27T18:28:29.656Z,14.77
2022-09-27T18:31:07.825Z,15.75
2022-09-27T18:33:41.135Z,14.70
2022-09-27T18:36:17.205Z,15.20
2022-09-27T18:38:48.303Z,13.73
2022-09-27T18:41:20.127Z,14.73
2022-09-27T18:43:50.841Z,15.25
2022-09-27T18:46:38.628Z,14.18
2022-09-27T18:49:13.835Z,15.25
2022-09-27T18:51:47.301Z,14.50
2022-09-27T18:54:19.670Z,15.20
2022-09-27T18:56:50.863Z,15.05
2022-09-27T18:59:22.620Z,14.82
2022-09-27T19:01:53.365Z,15.27
2022-09-27T19:04:26.978Z,14.32
2022-09-27T19:06:58.688Z,13.57
2022-09-27T19:09:29.171Z,14.07
2022-09-27T19:12:02.211Z,13.73
2022-09-27T19:14:32.388Z,14.80
2022-09-27T19:17:02.550Z,14.82
2022-09-27T19:19:35.323Z,14.00
2022-09-27T19:22:05.741Z,15.07
2022-09-27T19:24:35.969Z,14.18
2022-09-27T19:27:06.427Z,15.10
2022-09-27T19:29:37.046Z,15.48
2022-09-27T19:32:07.389Z,15.18
2022-09-27T19:34:40.299Z,15.38
2022-09-27T19:37:10.515Z,16.17
2022-09-27T19:39:40.890Z,15.77
2022-09-27T19:42:11.056Z,15.45
2022-09-27T19:44:41.279Z,14.55
2022-09-27T19:47:11.688Z,13.82
2022-09-27T19:49:44.781Z,12.63
2022-09-27T19:52:14.977Z,9.18
2022-09-27T19:54:45.908Z,6.90
2022-09-27T19:57:16.076Z,4.05
2022-09-27T19:59:46.358Z,3.35
2022-09-27T20:02:18.954Z,2.78
2022-09-27T20:04:51.895Z,2.15
2022-09-27T20:07:22.284Z,2.50
2022-09-27T20:09:53.062Z,1.70
2022-09-27T20:12:23.739Z,1.48
2022-09-27T20:14:53.926Z,1.40
2022-09-27T20:17:24.091Z,1.77
2022-09-27T20:19:56.927Z,1.40
2022-09-27T20:22:27.188Z,1.20
2022-09-27T20:24:57.682Z,1.40
2022-09-27T20:27:28.095Z,1.50
2022-09-27T20:29:58.445Z,1.23
2022-09-27T20:32:28.839Z,1.65
2022-09-27T20:35:01.680Z,1.23
2022-09-27T20:37:35.376Z,1.77
2022-09-27T20:40:07.747Z,1.50
2022-09-27T20:42:40.270Z,1.80
2022-09-27T20:45:10.942Z,1.50
2022-09-27T20:47:41.318Z,1.50
2022-09-27T20:50:14.275Z,1.60
2022-09-27T20:52:44.465Z,2.60
2022-09-27T20:55:14.741Z,1.90
2022-09-27T20:57:57.011Z,1.85
2022-09-27T21:00:28.117Z,1.52
2022-09-27T21:02:58.311Z,1.50
2022-09-27T21:05:31.391Z,1.50
2022-09-27T21:08:01.899Z,1.50
2022-09-27T21:10:32.108Z,1.42
2022-09-27T21:13:05.241Z,1.40
2022-09-27T21:15:35.967Z,1.70
2022-09-27T21:18:06.712Z,1.23
2022-09-27T21:20:39.437Z,1.40
2022-09-27T21:23:09.630Z,1.38
2022-09-27T21:25:39.698Z,2.65
2022-09-27T21:28:10.981Z,1.67
2022-09-27T21:30:41.541Z,1.10
2022-09-27T21:33:11.789Z,1.50
2022-09-27T21:35:44.638Z,1.35
2022-09-27T21:38:14.884Z,1.60
2022-09-27T21:40:45.043Z,1.30
2022-09-27T21:43:15.386Z,1.30
2022-09-27T21:45:45.518Z,1.10
2022-09-27T21:48:15.722Z,0.88
2022-09-27T21:50:49.592Z,1.02
2022-09-27T21:55:57.406Z,0.90
2022-09-27T21:58:30.123Z,0.90
2022-09-27T22:01:00.446Z,1.35
2022-09-27T22:03:30.722Z,1.15
2022-09-27T22:06:03.431Z,0.95
2022-09-27T22:08:33.583Z,1.02
2022-09-27T22:11:03.851Z,1.13
2022-09-27T22:13:34.912Z,0.90
2022-09-27T22:16:09.376Z,1.20
2022-09-27T22:18:41.491Z,0.90
2022-09-27T22:21:16.545Z,0.90
2022-09-27T22:23:47.736Z,0.90
2022-09-27T22:26:19.734Z,1.38
2022-09-27T22:28:50.209Z,1.00
2022-09-27T22:31:22.469Z,1.02
2022-09-27T22:33:54.348Z,1.13
2022-09-27T22:36:28.314Z,1.05
2022-09-27T22:41:29.544Z,0.77
2022-09-27T22:44:01.321Z,0.93
2022-09-27T22:46:31.701Z,0.95
2022-09-27T22:49:02.198Z,1.20
2022-09-27T22:51:35.007Z,0.90
2022-09-27T22:54:05.793Z,1.20
2022-09-27T22:56:35.998Z,1.30
2022-09-27T22:59:08.749Z,1.00
2022-09-27T23:01:39.088Z,1.30
2022-09-27T23:04:09.367Z,1.20
2022-09-27T23:06:42.912Z,1.15
2022-09-27T23:09:14.113Z,1.13
2022-09-27T23:11:44.446Z,1.13
2022-09-27T23:14:15.848Z,1.40
2022-09-27T23:16:45.996Z,1.38
2022-09-27T23:19:17.297Z,1.20
2022-09-27T23:21:50.232Z,1.50
2022-09-27T23:24:20.424Z,1.27
2022-09-27T23:27:10.855Z,1.70
2022-09-27T23:29:42.705Z,1.27
2022-09-27T23:32:12.821Z,1.25
2022-09-27T23:34:43.057Z,1.20
2022-09-27T23:37:15.797Z,1.50
2022-09-27T23:39:46.270Z,1.50
2022-09-27T23:42:16.508Z,1.40
2022-09-27T23:44:46.878Z,1.63
2022-09-27T23:47:17.271Z,1.42
2022-09-27T23:49:47.744Z,1.50
2022-09-27T23:52:20.520Z,1.60
2022-09-27T23:54:50.684Z,1.60
2022-09-27T23:57:20.861Z,1.70
2022-09-27T23:59:51.131Z,1.70
